Time;durP1;ratioP1;P1;durP2;ratioP2;P2;SDS_P1;SDS_P2;PMS_P1;PMS_P2;Temp;Humidity;BMP_temperature;BMP_pressure;BME280_temperature;BME280_humidity;BME280_pressure;Samples;Min_cycle;Max_cycle;Signal;HPM_P1;HPM_P2
2022/05/21 00:01:43;;;;;;;0.75;0.30;;;19.50;60.30;;;;;;5092270;28;20416;-72
2022/05/21 00:04:09;;;;;;;1.48;0.70;;;19.40;60.20;;;;;;5092486;28;20044;-71
2022/05/21 00:06:35;;;;;;;1.15;0.32;;;19.40;60.10;;;;;;5093649;28;20603;-71
2022/05/21 00:09:00;;;;;;;1.55;0.50;;;19.40;60.10;;;;;;5092379;28;20051;-68
2022/05/21 00:11:26;;;;;;;1.20;0.30;;;19.40;60.20;;;;;;5092125;28;20075;-73
2022/05/21 00:13:55;;;;;;;1.55;0.50;;;19.40;60.20;;;;;;5092179;28;20050;-73
2022/05/21 00:16:20;;;;;;;1.10;0.28;;;19.40;60.20;;;;;;5092327;28;20040;-72
2022/05/21 00:18:47;;;;;;;2.03;0.60;;;19.30;60.10;;;;;;5093121;28;20046;-72
2022/05/21 00:21:13;;;;;;;0.98;0.40;;;19.30;60.10;;;;;;5091946;28;20040;-73
2022/05/21 00:23:40;;;;;;;1.88;0.50;;;19.30;60.10;;;;;;5091935;28;20450;-72
2022/05/21 00:26:10;;;;;;;1.52;0.38;;;19.30;60.00;;;;;;5091173;28;20079;-72
2022/05/21 00:28:38;;;;;;;2.45;0.55;;;19.30;60.10;;;;;;5091936;28;20038;-73
2022/05/21 00:31:04;;;;;;;1.08;0.70;;;19.30;60.10;;;;;;5092682;28;20377;-72
2022/05/21 00:33:31;;;;;;;1.77;0.30;;;19.30;60.10;;;;;;5091881;28;20044;-72
2022/05/21 00:35:57;;;;;;;2.08;0.40;;;19.30;60.10;;;;;;5093255;28;20405;-73
2022/05/21 00:38:23;;;;;;;1.83;0.50;;;19.30;60.10;;;;;;5091547;28;20074;-72
2022/05/21 00:40:49;;;;;;;0.85;0.30;;;19.30;60.10;;;;;;5091638;28;20048;-72
2022/05/21 00:46:22;;;;;;;2.88;1.05;;;19.30;60.90;;;;;;5129934;27;20461;-72
2022/05/21 00:51:48;;;;;;;2.85;0.30;;;19.30;60.10;;;;;;5110083;27;20433;-71
2022/05/21 00:54:16;;;;;;;2.10;0.50;;;19.20;60.10;;;;;;5108095;28;20043;-73
2022/05/21 00:56:47;;;;;;;1.17;0.40;;;19.20;60.00;;;;;;5108582;28;20032;-72
2022/05/21 01:02:03;;;;;;;2.25;0.50;;;19.30;60.10;;;;;;5108058;28;20455;-72
2022/05/21 01:04:31;;;;;;;1.30;0.60;;;19.20;60.00;;;;;;5108201;28;20039;-72
2022/05/21 01:07:01;;;;;;;1.75;0.73;;;19.20;60.00;;;;;;5108030;28;20040;-72
2022/05/21 01:09:26;;;;;;;0.85;0.50;;;19.20;60.00;;;;;;5107699;28;20296;-71
2022/05/21 01:11:53;;;;;;;1.33;0.55;;;19.20;60.00;;;;;;5107870;28;20092;-72
2022/05/21 01:14:20;;;;;;;2.25;0.63;;;19.20;60.00;;;;;;5107757;28;20097;-73
2022/05/21 01:16:48;;;;;;;2.15;0.77;;;19.20;60.00;;;;;;5108151;28;20046;-72
2022/05/21 01:19:13;;;;;;;2.00;0.45;;;19.20;60.00;;;;;;5107569;28;20044;-72
2022/05/21 01:21:39;;;;;;;1.88;0.98;;;19.20;60.00;;;;;;5107429;28;20040;-72
2022/05/21 01:24:06;;;;;;;1.63;0.55;;;19.20;60.00;;;;;;5108086;28;20122;-72
2022/05/21 01:26:34;;;;;;;1.15;0.50;;;19.20;60.00;;;;;;5107827;28;20040;-72
2022/05/21 01:29:03;;;;;;;2.25;1.08;;;19.10;60.00;;;;;;5107436;28;20043;-72
2022/05/21 01:31:32;;;;;;;1.65;0.93;;;19.20;60.00;;;;;;5107607;28;20243;-72
2022/05/21 01:33:59;;;;;;;2.70;0.90;;;19.10;60.00;;;;;;5108555;28;20058;-72
2022/05/21 01:36:25;;;;;;;2.97;0.50;;;19.10;60.00;;;;;;5107643;28;20058;-72
2022/05/21 01:38:50;;;;;;;1.85;0.70;;;19.10;59.90;;;;;;5107358;28;20036;-72
2022/05/21 01:41:16;;;;;;;2.40;1.13;;;19.10;59.90;;;;;;5107484;28;20534;-72
2022/05/21 01:46:30;;;;;;;2.38;1.27;;;19.10;60.00;;;;;;5107316;28;20048;-73
2022/05/21 01:48:56;;;;;;;1.05;0.68;;;19.10;59.90;;;;;;5107184;28;20451;-73
2022/05/21 01:51:22;;;;;;;1.98;0.70;;;19.10;60.00;;;;;;5108107;28;20143;-72
2022/05/21 01:53:47;;;;;;;3.50;1.20;;;19.10;60.00;;;;;;5106858;28;20087;-72
2022/05/21 01:56:16;;;;;;;2.55;1.20;;;19.10;60.00;;;;;;5107139;28;20028;-72
2022/05/21 01:58:43;;;;;;;2.72;0.80;;;19.10;60.00;;;;;;5106845;28;20491;-72
2022/05/21 02:01:10;;;;;;;1.23;0.88;;;19.10;60.00;;;;;;5103044;28;20505;-72
2022/05/21 02:03:36;;;;;;;2.97;0.82;;;19.10;60.00;;;;;;5094816;28;20043;-72
2022/05/21 02:06:02;;;;;;;1.92;0.57;;;19.10;60.00;;;;;;5093244;28;20043;-71
2022/05/21 02:08:28;;;;;;;2.35;1.17;;;19.10;60.10;;;;;;5094638;28;20040;-72
2022/05/21 02:10:54;;;;;;;2.45;0.98;;;19.10;60.00;;;;;;5094721;28;20044;-72
2022/05/21 02:13:24;;;;;;;1.75;0.98;;;19.10;60.00;;;;;;5092940;28;20051;-73
2022/05/21 02:15:50;;;;;;;2.17;0.98;;;19.10;60.00;;;;;;5093100;28;20051;-72
2022/05/21 02:18:16;;;;;;;2.05;1.23;;;19.00;60.70;;;;;;5110399;28;20048;-71
2022/05/21 02:20:42;;;;;;;2.40;1.00;;;19.10;60.00;;;;;;5092586;28;20506;-72
2022/05/21 02:23:10;;;;;;;2.42;1.10;;;19.10;60.00;;;;;;5093061;28;20044;-72
2022/05/21 02:25:36;;;;;;;3.13;1.90;;;19.10;60.00;;;;;;5094145;28;20395;-72
2022/05/21 02:28:02;;;;;;;2.58;1.30;;;19.10;60.00;;;;;;5094256;28;20043;-72
2022/05/21 02:30:28;;;;;;;2.03;0.75;;;19.10;60.00;;;;;;5094110;28;20038;-72
2022/05/21 02:32:53;;;;;;;1.88;1.00;;;19.10;60.00;;;;;;5075926;28;20032;-71
2022/05/21 02:35:19;;;;;;;2.72;0.90;;;19.10;60.00;;;;;;5092720;28;20040;-72
2022/05/21 02:40:31;;;;;;;2.05;1.45;;;19.10;60.00;;;;;;5092402;28;20126;-72
2022/05/21 02:43:00;;;;;;;3.90;1.33;;;19.10;60.00;;;;;;5075695;28;20048;-72
2022/05/21 02:45:27;;;;;;;1.92;0.80;;;19.00;60.00;;;;;;5092794;28;20043;-71
2022/05/21 02:47:54;;;;;;;2.53;0.90;;;19.00;60.00;;;;;;5092874;28;20040;-72
2022/05/21 02:50:24;;;;;;;2.53;1.10;;;19.00;60.00;;;;;;5092133;28;20566;-72
2022/05/21 02:52:50;;;;;;;3.05;0.60;;;19.10;60.10;;;;;;5092385;28;20391;-72
2022/05/21 02:55:17;;;;;;;4.20;0.90;;;19.10;60.00;;;;;;5093520;28;20028;-72
2022/05/21 02:57:43;;;;;;;2.15;0.70;;;19.10;60.00;;;;;;5093473;28;20674;-72
2022/05/21 03:00:13;;;;;;;3.45;0.88;;;19.10;60.00;;;;;;5092277;28;20071;-71
2022/05/21 03:02:39;;;;;;;2.53;1.13;;;19.10;60.00;;;;;;5092097;28;20055;-72
2022/05/21 03:05:06;;;;;;;1.83;0.93;;;19.00;60.00;;;;;;5091974;28;20044;-73
2022/05/21 03:07:37;;;;;;;3.08;0.65;;;19.00;60.00;;;;;;5109128;28;20062;-72
2022/05/21 03:10:34;;;;;;;1.42;0.80;;;19.00;60.00;;;;;;5091848;28;20044;-72
2022/05/21 03:15:32;;;;;;;2.90;0.80;;;19.00;60.00;;;;;;5129758;27;20414;-72
2022/05/21 03:18:00;;;;;;;2.20;0.73;;;19.00;60.00;;;;;;5128854;28;20039;-73
2022/05/21 03:20:25;;;;;;;2.05;1.15;;;19.00;60.00;;;;;;5111640;28;20046;-70
2022/05/21 03:22:51;;;;;;;1.83;0.60;;;19.00;60.80;;;;;;5128740;28;20567;-72
2022/05/21 03:25:17;;;;;;;2.75;0.93;;;19.00;60.10;;;;;;5128736;28;20043;-72
2022/05/21 03:27:43;;;;;;;2.08;0.60;;;19.00;60.10;;;;;;5128780;27;20074;-72
2022/05/21 03:30:14;;;;;;;1.73;0.70;;;19.00;60.10;;;;;;5128345;28;20487;-72
2022/05/21 03:32:41;;;;;;;2.70;1.13;;;19.00;60.00;;;;;;5128360;28;20081;-72
2022/05/21 03:35:08;;;;;;;1.98;0.60;;;19.00;60.00;;;;;;5129364;27;20074;-72
2022/05/21 03:37:37;;;;;;;2.45;1.13;;;19.00;60.00;;;;;;5128454;28;20112;-72
2022/05/21 03:40:04;;;;;;;1.40;0.75;;;19.00;60.00;;;;;;5128540;28;20039;-72
2022/05/21 03:42:30;;;;;;;2.92;0.88;;;19.00;60.00;;;;;;5145320;27;20047;-72
2022/05/21 03:44:56;;;;;;;2.50;0.63;;;19.00;60.00;;;;;;5128261;28;20395;-72
2022/05/21 03:47:24;;;;;;;1.60;0.40;;;19.00;60.10;;;;;;5128227;28;20075;-72
2022/05/21 03:49:50;;;;;;;2.10;0.60;;;19.00;60.10;;;;;;5128349;28;20047;-73
2022/05/21 03:52:16;;;;;;;2.00;0.70;;;19.00;60.10;;;;;;5145775;27;20183;-72
2022/05/21 03:54:41;;;;;;;2.63;0.63;;;19.00;60.10;;;;;;5144998;27;20084;-73
2022/05/21 03:57:07;;;;;;;1.52;0.75;;;18.90;60.10;;;;;;5127893;28;20503;-71
2022/05/21 03:59:34;;;;;;;1.33;0.50;;;19.00;60.10;;;;;;5129023;28;20062;-72
2022/05/21 04:01:59;;;;;;;2.15;0.70;;;19.00;60.10;;;;;;5127924;28;20495;-72
2022/05/21 04:04:25;;;;;;;3.13;0.55;;;19.00;60.10;;;;;;5127582;28;20047;-73
2022/05/21 04:06:51;;;;;;;1.48;0.30;;;19.00;60.10;;;;;;5127819;28;20126;-72
2022/05/21 04:09:17;;;;;;;3.45;0.77;;;19.00;60.10;;;;;;5127862;28;20047;-72
2022/05/21 04:11:42;;;;;;;2.50;0.70;;;19.00;60.10;;;;;;5129159;28;20501;-72
2022/05/21 04:14:08;;;;;;;1.85;0.50;;;19.00;60.10;;;;;;5127109;28;20047;-72
2022/05/21 04:16:34;;;;;;;2.85;0.63;;;19.00;60.10;;;;;;5127416;27;20050;-72
2022/05/21 04:19:01;;;;;;;1.98;0.45;;;19.00;60.20;;;;;;5127690;28;20398;-73
2022/05/21 04:21:28;;;;;;;2.70;0.60;;;19.00;60.10;;;;;;5127535;27;20074;-72
2022/05/21 04:23:57;;;;;;;4.88;0.70;;;19.00;60.10;;;;;;5127425;28;20043;-73
2022/05/21 04:26:22;;;;;;;2.45;0.77;;;19.00;60.10;;;;;;5133324;27;20043;-72
2022/05/21 04:28:48;;;;;;;1.45;0.50;;;19.00;60.10;;;;;;5130898;27;20441;-73
2022/05/21 04:31:14;;;;;;;2.60;0.60;;;19.00;60.10;;;;;;5115255;28;20043;-73
2022/05/21 04:33:42;;;;;;;3.40;0.82;;;19.00;60.10;;;;;;5114618;28;20047;-73
2022/05/21 04:36:23;;;;;;;2.45;0.50;;;19.00;60.20;;;;;;5113393;28;20036;-73
2022/05/21 04:38:52;;;;;;;1.55;0.50;;;19.00;60.20;;;;;;5131026;27;20051;-71
2022/05/21 04:41:19;;;;;;;1.90;0.60;;;19.00;60.20;;;;;;5112993;28;20047;-73
2022/05/21 04:43:45;;;;;;;3.13;0.30;;;19.00;60.20;;;;;;5113241;28;20486;-73
2022/05/21 04:46:15;;;;;;;2.15;0.50;;;19.00;60.10;;;;;;5113340;28;20119;-73
2022/05/21 04:48:42;;;;;;;3.03;0.52;;;19.00;60.10;;;;;;5114909;28;20122;-73
2022/05/21 04:51:08;;;;;;;1.85;0.65;;;19.00;60.10;;;;;;5113295;28;20119;-73
2022/05/21 04:53:34;;;;;;;2.03;0.40;;;19.00;60.10;;;;;;5114212;28;20126;-72
2022/05/21 04:56:01;;;;;;;2.28;0.52;;;19.00;60.20;;;;;;5113433;28;20123;-73
2022/05/21 04:58:27;;;;;;;2.58;0.50;;;19.00;60.10;;;;;;5130395;27;20039;-73
2022/05/21 05:00:53;;;;;;;2.13;0.80;;;19.00;60.10;;;;;;5112785;28;20494;-73
2022/05/21 05:03:19;;;;;;;2.00;0.50;;;19.00;60.10;;;;;;5114218;28;20540;-74
2022/05/21 05:05:46;;;;;;;3.67;0.60;;;19.00;60.10;;;;;;5114160;28;20035;-72
2022/05/21 05:08:13;;;;;;;2.28;0.80;;;19.00;60.10;;;;;;5113048;28;20039;-72
2022/05/21 05:10:39;;;;;;;3.58;0.50;;;19.00;60.00;;;;;;5112797;28;20478;-73
2022/05/21 05:13:06;;;;;;;2.38;0.32;;;19.00;60.00;;;;;;5112697;28;20039;-70
2022/05/21 05:15:32;;;;;;;2.13;0.40;;;19.00;60.00;;;;;;5112491;28;20044;-73
2022/05/21 05:18:01;;;;;;;2.08;0.32;;;19.00;60.00;;;;;;5113229;28;20044;-72
2022/05/21 05:20:30;;;;;;;1.48;0.60;;;19.00;59.90;;;;;;5113873;28;20035;-73
2022/05/21 05:22:56;;;;;;;2.65;0.60;;;19.10;59.90;;;;;;5112750;28;20122;-73
2022/05/21 05:25:22;;;;;;;1.35;0.32;;;19.10;59.90;;;;;;5113697;28;20123;-73
2022/05/21 05:27:49;;;;;;;2.50;0.60;;;19.10;59.80;;;;;;5112783;28;20040;-72
2022/05/21 05:30:17;;;;;;;5.25;0.60;;;19.10;59.80;;;;;;5113890;28;20027;-72
2022/05/21 05:32:43;;;;;;;2.72;0.40;;;19.10;59.80;;;;;;5113426;28;20126;-73
2022/05/21 05:35:13;;;;;;;1.73;0.40;;;19.10;59.80;;;;;;5130310;27;20135;-72
2022/05/21 05:37:39;;;;;;;1.70;0.30;;;19.10;59.70;;;;;;5111728;28;20037;-72
2022/05/21 05:40:08;;;;;;;2.17;0.30;;;19.10;59.60;;;;;;5112160;28;20044;-72
2022/05/21 05:42:36;;;;;;;1.55;0.40;;;19.10;59.60;;;;;;5112031;28;20039;-73
2022/05/21 05:45:03;;;;;;;2.25;0.57;;;19.10;59.60;;;;;;5112012;28;20040;-71
2022/05/21 05:47:31;;;;;;;2.58;0.57;;;19.10;59.50;;;;;;5113379;28;20040;-72
2022/05/21 05:49:57;;;;;;;3.08;0.40;;;19.20;59.50;;;;;;5112335;28;20043;-73
2022/05/21 05:52:23;;;;;;;1.92;0.30;;;19.20;59.50;;;;;;5112412;28;20483;-72
2022/05/21 05:54:49;;;;;;;3.63;0.38;;;19.10;59.40;;;;;;5111979;28;20130;-71
2022/05/21 05:57:15;;;;;;;2.17;0.32;;;19.10;59.40;;;;;;5113004;28;20483;-72
2022/05/21 05:59:48;;;;;;;1.65;0.50;;;19.20;59.40;;;;;;5112284;28;20594;-69
2022/05/21 06:05:01;;;;;;;2.33;0.55;;;19.20;59.30;;;;;;5112745;28;20079;-71
2022/05/21 06:07:27;;;;;;;1.65;0.45;;;19.20;59.30;;;;;;5111640;28;20047;-72
2022/05/21 06:09:54;;;;;;;3.53;0.95;;;19.20;59.30;;;;;;5113189;28;20050;-72
2022/05/21 06:12:20;;;;;;;2.17;0.57;;;19.20;59.20;;;;;;5095473;28;20039;-74
2022/05/21 06:14:46;;;;;;;3.05;0.50;;;19.20;59.20;;;;;;5112483;28;20051;-71
2022/05/21 06:17:12;;;;;;;3.20;0.55;;;19.20;59.20;;;;;;5113079;28;20535;-71
2022/05/21 06:19:38;;;;;;;3.95;0.40;;;19.20;59.10;;;;;;5111677;28;20136;-71
2022/05/21 06:22:04;;;;;;;1.33;0.28;;;19.20;59.00;;;;;;5112480;28;20059;-72
2022/05/21 06:24:36;;;;;;;2.15;0.40;;;19.30;59.10;;;;;;5111730;28;20039;-71
2022/05/21 06:27:05;;;;;;;3.67;0.40;;;19.20;59.00;;;;;;5111989;28;20043;-71
2022/05/21 06:29:30;;;;;;;2.38;0.30;;;19.30;59.00;;;;;;5111752;28;20073;-73
2022/05/21 06:31:57;;;;;;;5.60;0.70;;;19.30;58.90;;;;;;5112658;28;20036;-71
2022/05/21 06:34:23;;;;;;;6.85;0.45;;;19.30;59.10;;;;;;5109562;28;20036;-71
2022/05/21 06:36:49;;;;;;;6.78;0.40;;;19.40;59.20;;;;;;5108806;28;20047;-70
2022/05/21 06:39:15;;;;;;;4.05;0.40;;;19.40;59.30;;;;;;5111610;28;20035;-73
2022/05/21 06:41:41;;;;;;;3.58;0.50;;;19.40;59.40;;;;;;5110468;28;20118;-73
2022/05/21 06:44:09;;;;;;;2.90;0.52;;;19.40;59.30;;;;;;5110081;28;20051;-74
2022/05/21 06:46:38;;;;;;;1.73;0.30;;;19.50;59.30;;;;;;5110275;28;20505;-75
2022/05/21 06:49:04;;;;;;;4.00;0.22;;;19.50;59.30;;;;;;5110364;28;20059;-73
2022/05/21 06:51:30;;;;;;;3.80;0.52;;;19.50;59.30;;;;;;5110512;28;20499;-73
2022/05/21 06:53:56;;;;;;;1.95;0.40;;;19.60;59.30;;;;;;5111888;28;20467;-73
2022/05/21 06:56:21;;;;;;;4.05;0.60;;;19.60;59.10;;;;;;5109750;28;20039;-73
2022/05/21 06:58:47;;;;;;;2.35;0.68;;;19.60;59.10;;;;;;5108907;28;20040;-71
2022/05/21 07:01:13;;;;;;;2.70;0.40;;;19.70;59.80;;;;;;5109466;28;20156;-73
2022/05/21 07:03:39;;;;;;;1.60;0.30;;;19.70;58.90;;;;;;5110726;28;20048;-73
2022/05/21 07:08:51;;;;;;;3.95;0.43;;;19.70;58.50;;;;;;5111733;28;20035;-73
2022/05/21 07:11:16;;;;;;;4.03;0.82;;;19.80;58.50;;;;;;5107983;28;20130;-72
2022/05/21 07:13:43;;;;;;;4.82;0.47;;;19.80;58.50;;;;;;5109351;28;20044;-72
2022/05/21 07:16:09;;;;;;;5.57;0.50;;;19.80;58.50;;;;;;5109374;28;20039;-73
2022/05/21 07:18:35;;;;;;;3.92;0.32;;;19.80;58.60;;;;;;5109589;28;20040;-72
2022/05/21 07:21:01;;;;;;;2.90;0.32;;;19.80;58.50;;;;;;5111247;28;20701;-71
2022/05/21 07:23:28;;;;;;;2.35;0.52;;;19.90;58.60;;;;;;5110180;28;20124;-73
2022/05/21 07:25:55;;;;;;;1.23;0.30;;;19.90;58.50;;;;;;5109075;28;20040;-69
2022/05/21 07:28:21;;;;;;;3.72;0.43;;;19.90;58.40;;;;;;5111567;28;20513;-71
2022/05/21 07:30:48;;;;;;;4.50;0.70;;;19.90;58.40;;;;;;5111468;28;20036;-73
2022/05/21 07:33:17;;;;;;;14.73;0.90;;;19.90;58.30;;;;;;5110108;28;20070;-72
2022/05/21 07:35:44;;;;;;;5.22;0.88;;;20.00;58.40;;;;;;5111393;28;20047;-71
2022/05/21 07:38:11;;;;;;;5.90;0.60;;;20.00;58.30;;;;;;5109985;28;20115;-73
2022/05/21 07:40:38;;;;;;;9.07;0.70;;;20.00;58.10;;;;;;5110154;28;20035;-71
2022/05/21 07:43:29;;;;;;;1.75;0.40;;;20.00;58.10;;;;;;5111008;28;20050;-70
2022/05/21 07:45:55;;;;;;;2.70;0.30;;;20.00;58.10;;;;;;5108191;28;20383;-71
2022/05/21 07:48:25;;;;;;;1.60;0.30;;;20.00;57.90;;;;;;5110735;28;20532;-72
2022/05/21 07:50:55;;;;;;;3.60;0.20;;;20.10;57.90;;;;;;5111406;28;20088;-70
2022/05/21 07:53:26;;;;;;;4.65;0.40;;;20.10;57.80;;;;;;5111243;28;20040;-72
2022/05/21 07:55:53;;;;;;;4.15;0.50;;;20.10;57.70;;;;;;5110867;28;20032;-73
2022/05/21 07:58:20;;;;;;;2.47;0.40;;;20.20;57.70;;;;;;5109191;28;20085;-71
2022/05/21 08:00:46;;;;;;;2.75;0.30;;;20.10;57.60;;;;;;5110872;28;20478;-72
2022/05/21 08:03:13;;;;;;;2.53;0.20;;;20.10;57.60;;;;;;5115082;28;20050;-70
2022/05/21 08:05:40;;;;;;;3.70;0.52;;;20.10;57.50;;;;;;5113734;28;20100;-71
2022/05/21 08:08:09;;;;;;;2.25;0.40;;;20.10;57.50;;;;;;5115427;28;20043;-69
2022/05/21 08:10:37;;;;;;;2.17;0.30;;;20.20;57.60;;;;;;5115155;28;20046;-69
2022/05/21 08:13:03;;;;;;;3.17;0.40;;;20.20;57.50;;;;;;5115133;28;20080;-70
2022/05/21 08:15:29;;;;;;;3.35;0.50;;;20.20;57.50;;;;;;5114836;28;20440;-69
2022/05/21 08:17:55;;;;;;;1.38;0.30;;;20.20;57.50;;;;;;5114685;28;20074;-70
2022/05/21 08:20:21;;;;;;;3.08;0.40;;;20.20;57.40;;;;;;5114468;28;20059;-71
2022/05/21 08:28:18;;;;;;;1.63;0.30;;;20.30;57.20;;;;;;5113065;28;20056;-71
2022/05/21 08:30:47;;;;;;;5.20;0.50;;;20.30;57.00;;;;;;5114092;28;20051;-68
2022/05/21 08:33:14;;;;;;;1.13;0.20;;;20.30;56.70;;;;;;5114145;28;20035;-67
2022/05/21 08:35:40;;;;;;;3.30;0.40;;;20.30;56.70;;;;;;5114713;28;20054;-69
2022/05/21 08:38:08;;;;;;;5.15;0.30;;;20.30;56.80;;;;;;5112848;28;20479;-70
2022/05/21 08:48:54;;;;;;;3.38;0.32;;;20.40;56.60;;;;;;5152008;27;1176093;-69
2022/05/21 08:51:22;;;;;;;4.05;0.70;;;20.50;56.50;;;;;;5152464;27;20054;-70
2022/05/21 08:53:51;;;;;;;5.50;0.40;;;20.60;56.40;;;;;;5155288;27;20482;-68
2022/05/21 08:56:18;;;;;;;2.20;0.30;;;20.70;56.30;;;;;;5154818;27;20041;-69
2022/05/21 08:58:49;;;;;;;4.70;0.50;;;20.80;55.90;;;;;;5157208;27;20042;-70
2022/05/21 09:01:19;;;;;;;3.53;0.30;;;21.00;55.40;;;;;;5173422;27;20536;-70
2022/05/21 09:03:46;;;;;;;2.42;0.20;;;21.00;55.10;;;;;;5153177;27;20429;-70
2022/05/21 09:14:42;;;;;;;3.65;0.30;;;21.30;54.40;;;;;;5129862;27;20407;-69
2022/05/21 09:17:11;;;;;;;3.83;0.38;;;21.70;53.20;;;;;;5128089;28;20039;-67
2022/05/21 09:19:40;;;;;;;4.90;0.22;;;21.80;52.90;;;;;;5128423;28;20049;-69
2022/05/21 09:22:10;;;;;;;2.33;0.43;;;21.80;52.90;;;;;;5129237;27;20057;-70
2022/05/21 09:33:21;;;;;;;5.20;0.60;;;21.80;52.90;;;;;;5150086;27;20107;-70
2022/05/21 09:38:50;;;;;;;3.83;0.50;;;22.00;52.00;;;;;;5129348;27;20346;-70
2022/05/21 09:47:24;;;;;;;5.13;0.45;;;22.20;51.70;;;;;;5127559;28;20040;-71
2022/05/21 09:50:09;;;;;;;4.10;0.30;;;22.20;51.70;;;;;;5127608;28;20035;-70
2022/05/21 09:52:36;;;;;;;3.35;0.55;;;22.20;51.60;;;;;;5126066;27;20425;-70
2022/05/21 09:55:05;;;;;;;4.47;0.80;;;22.20;51.50;;;;;;5128527;27;20031;-72
2022/05/21 09:57:38;;;;;;;9.00;0.70;;;22.20;51.50;;;;;;5128583;27;20044;-71
2022/05/21 10:03:09;;;;;;;4.13;0.63;;;22.20;51.40;;;;;;5109837;27;1166875;-73
2022/05/21 10:05:40;;;;;;;6.88;0.90;;;22.20;52.20;;;;;;5111176;28;20040;-71
2022/05/21 10:11:11;;;;;;;7.75;0.70;;;22.20;51.40;;;;;;5110642;28;20055;-73
2022/05/21 10:16:31;;;;;;;5.45;0.65;;;22.30;51.30;;;;;;5128252;27;20375;-72
2022/05/21 10:19:34;;;;;;;5.05;0.45;;;22.20;51.30;;;;;;5128057;28;20123;-70
2022/05/21 10:22:10;;;;;;;4.32;0.50;;;22.20;51.30;;;;;;5127991;28;20046;-71
2022/05/21 10:52:48;;;;;;;2.65;0.40;;;21.70;51.90;;;;;;5129945;27;20349;-71
2022/05/21 11:01:14;;;;;;;2.97;0.30;;;21.60;52.00;;;;;;5109695;27;20104;-71
2022/05/21 11:09:26;;;;;;;4.00;0.90;;;21.60;52.20;;;;;;5130070;27;20403;-70
2022/05/21 11:12:15;;;;;;;2.17;0.40;;;21.50;52.30;;;;;;5128849;28;20139;-71
2022/05/21 11:20:33;;;;;;;3.03;0.50;;;21.40;52.40;;;;;;5130155;27;20383;-70
2022/05/21 11:23:11;;;;;;;1.33;0.30;;;21.40;52.50;;;;;;5128592;28;20054;-67
2022/05/21 11:25:44;;;;;;;2.53;0.30;;;21.40;52.50;;;;;;5128630;28;20043;-71
2022/05/21 11:28:35;;;;;;;2.85;0.30;;;21.40;52.50;;;;;;5128637;28;20032;-71
2022/05/21 11:31:13;;;;;;;3.28;0.50;;;21.40;52.50;;;;;;5129951;27;20031;-70
2022/05/21 11:39:20;;;;;;;5.07;0.40;;;21.40;52.50;;;;;;5128141;27;20431;-70
2022/05/21 11:42:09;;;;;;;3.45;0.40;;;21.40;52.50;;;;;;5128398;28;20036;-70
2022/05/21 11:45:12;;;;;;;3.72;0.70;;;21.30;52.40;;;;;;5128025;28;20032;-70
2022/05/21 11:56:02;;;;;;;1.92;0.20;;;21.30;52.40;;;;;;5109435;27;20420;-70
2022/05/21 12:07:36;;;;;;;1.45;0.30;;;21.30;52.40;;;;;;5129999;27;20583;-72
2022/05/21 12:13:12;;;;;;;2.10;0.40;;;21.30;52.20;;;;;;5151629;27;1183086;-70
2022/05/21 12:15:43;;;;;;;2.70;0.70;;;21.30;52.20;;;;;;5152574;27;20063;-70
2022/05/21 12:30:00;;;;;;;2.85;0.30;;;21.30;52.40;;;;;;5130012;27;20383;-71
2022/05/21 12:32:27;;;;;;;1.98;0.20;;;21.20;52.30;;;;;;5128698;27;20043;-72
2022/05/21 12:37:43;;;;;;;2.55;0.40;;;21.20;52.40;;;;;;5129938;27;20136;-70
2022/05/21 12:43:01;;;;;;;1.65;0.35;;;21.20;52.40;;;;;;5089125;28;20409;-70
2022/05/21 12:48:24;;;;;;;1.52;0.20;;;21.20;52.40;;;;;;5130013;27;20395;-72
2022/05/21 12:50:59;;;;;;;1.73;0.25;;;21.20;52.30;;;;;;5128897;28;20052;-70
2022/05/21 12:53:35;;;;;;;1.98;0.40;;;21.20;52.30;;;;;;5129037;28;20475;-70
2022/05/21 12:58:43;;;;;;;1.95;0.20;;;21.20;52.30;;;;;;5089061;28;20409;-70
2022/05/21 13:01:30;;;;;;;1.30;0.10;;;21.20;52.40;;;;;;5088014;28;20047;-70
2022/05/21 13:03:57;;;;;;;1.15;0.17;;;21.20;52.30;;;;;;5087435;28;20051;-72
2022/05/21 13:06:26;;;;;;;3.10;0.20;;;21.20;52.30;;;;;;5087549;28;20472;-70
2022/05/21 13:08:52;;;;;;;1.15;0.20;;;21.20;52.10;;;;;;5087979;28;20131;-71
2022/05/21 13:11:21;;;;;;;2.03;0.40;;;21.20;52.20;;;;;;5087897;28;20083;-71
2022/05/21 13:13:57;;;;;;;1.35;0.10;;;21.20;52.30;;;;;;5089304;28;20111;-67
2022/05/21 13:16:23;;;;;;;2.47;0.20;;;21.20;52.20;;;;;;5087620;28;20427;-71
2022/05/21 13:29:50;;;;;;;1.75;0.20;;;21.20;52.20;;;;;;5129986;27;20132;-72
2022/05/21 13:35:00;;;;;;;1.33;0.30;;;21.20;52.40;;;;;;5130246;27;20784;-71
2022/05/21 13:37:45;;;;;;;1.63;0.20;;;21.10;52.30;;;;;;5128786;28;20054;-72
2022/05/21 13:40:20;;;;;;;0.90;0.20;;;21.10;52.40;;;;;;5128866;28;20459;-72
2022/05/21 13:42:50;;;;;;;1.63;0.20;;;21.10;52.40;;;;;;5128809;28;20035;-70
2022/05/21 13:45:28;;;;;;;2.13;0.20;;;21.10;52.30;;;;;;5129825;27;20395;-72
2022/05/21 13:50:46;;;;;;;1.05;0.20;;;21.10;52.30;;;;;;5130085;27;20124;-70
2022/05/21 13:53:18;;;;;;;1.63;0.40;;;21.20;52.60;;;;;;5128341;28;20043;-72
2022/05/21 13:56:02;;;;;;;1.75;0.30;;;21.20;52.50;;;;;;5130083;27;20151;-71
2022/05/21 13:58:31;;;;;;;2.92;0.20;;;21.20;52.50;;;;;;5130701;27;20403;-71
2022/05/21 14:01:00;;;;;;;2.47;0.22;;;21.20;52.40;;;;;;5130735;27;20057;-71
2022/05/21 14:03:29;;;;;;;2.10;0.20;;;21.20;52.30;;;;;;5129865;27;20038;-70
2022/05/21 14:06:01;;;;;;;1.38;0.30;;;21.20;52.30;;;;;;5128290;28;20035;-70
2022/05/21 14:08:36;;;;;;;1.77;0.20;;;21.30;52.20;;;;;;5128720;28;20043;-70
2022/05/21 14:11:15;;;;;;;1.00;0.22;;;21.30;52.10;;;;;;5111550;28;20035;-72
2022/05/21 14:19:25;;;;;;;1.98;0.20;;;21.30;52.00;;;;;;5129860;27;20379;-71
2022/05/21 14:24:43;;;;;;;1.92;0.20;;;21.30;51.90;;;;;;5088827;27;20405;-73
2022/05/21 14:30:03;;;;;;;2.53;0.20;;;21.30;51.90;;;;;;5130046;27;20456;-73
2022/05/21 14:37:54;;;;;;;1.50;0.35;;;21.20;52.10;;;;;;5129900;27;20379;-71
2022/05/21 14:40:20;;;;;;;0.98;0.20;;;21.30;52.10;;;;;;5111529;28;20130;-71
2022/05/21 14:42:47;;;;;;;3.58;0.70;;;21.30;52.10;;;;;;5128892;28;20039;-72
2022/05/21 14:45:27;;;;;;;1.88;0.30;;;21.30;52.00;;;;;;5129540;27;20043;-71
2022/05/21 14:47:53;;;;;;;1.90;0.20;;;21.30;52.00;;;;;;5128451;28;20058;-71
2022/05/21 14:53:12;;;;;;;1.73;0.20;;;21.30;51.90;;;;;;5129581;27;20076;-71
2022/05/21 14:55:39;;;;;;;2.95;0.22;;;21.30;52.10;;;;;;5128397;28;20549;-72
2022/05/21 14:58:05;;;;;;;0.98;0.17;;;21.20;52.00;;;;;;5128234;28;20479;-73
2022/05/21 15:00:31;;;;;;;1.08;0.20;;;21.20;52.10;;;;;;5128304;28;20044;-72
2022/05/21 15:02:57;;;;;;;2.97;0.30;;;21.20;52.10;;;;;;5126801;27;20054;-72
2022/05/21 15:05:23;;;;;;;2.03;0.35;;;21.20;52.20;;;;;;5107776;28;20387;-74
2022/05/21 15:07:55;;;;;;;1.40;0.20;;;21.20;53.00;;;;;;5105736;28;20036;-73
2022/05/21 15:10:22;;;;;;;4.30;0.20;;;21.10;52.20;;;;;;5107150;28;20039;-72
2022/05/21 15:12:51;;;;;;;1.90;0.40;;;21.10;52.30;;;;;;5126552;28;20113;-72
2022/05/21 15:15:19;;;;;;;1.33;0.20;;;21.10;52.30;;;;;;5127944;28;20043;-72
2022/05/21 15:17:45;;;;;;;2.50;0.30;;;21.10;52.30;;;;;;5127813;27;20124;-71
2022/05/21 15:20:14;;;;;;;1.80;0.20;;;21.10;52.40;;;;;;5127762;28;20637;-71
2022/05/21 15:22:41;;;;;;;2.15;0.35;;;21.10;52.40;;;;;;5127990;28;20039;-72
2022/05/21 15:25:09;;;;;;;1.75;0.30;;;21.10;52.40;;;;;;5127615;28;20072;-71
2022/05/21 15:27:39;;;;;;;3.03;0.22;;;21.10;52.40;;;;;;5127519;28;20043;-71
2022/05/21 15:30:07;;;;;;;2.20;0.30;;;21.10;52.40;;;;;;5111078;28;20039;-72
2022/05/21 15:32:34;;;;;;;2.65;0.30;;;21.10;52.40;;;;;;5127589;28;20287;-72
2022/05/21 15:35:00;;;;;;;2.65;0.50;;;21.10;52.40;;;;;;5128460;28;20043;-71
2022/05/21 15:37:29;;;;;;;2.20;0.47;;;21.10;52.40;;;;;;5127191;28;20395;-73
2022/05/21 15:39:54;;;;;;;2.65;0.22;;;21.10;52.40;;;;;;5127709;28;20039;-71
2022/05/21 15:42:22;;;;;;;1.08;0.43;;;21.10;52.30;;;;;;5127728;28;20088;-71
2022/05/21 15:44:48;;;;;;;1.90;0.20;;;21.10;52.40;;;;;;5127236;28;20039;-71
2022/05/21 15:47:14;;;;;;;2.00;0.20;;;21.20;52.40;;;;;;5124346;28;20505;-70
2022/05/21 15:49:40;;;;;;;2.35;0.13;;;21.20;52.40;;;;;;5115027;28;20067;-72
2022/05/21 15:52:11;;;;;;;2.80;0.30;;;21.20;52.30;;;;;;5114127;28;20446;-71
2022/05/21 15:54:37;;;;;;;1.73;0.25;;;21.20;52.30;;;;;;5114042;28;20043;-71
2022/05/21 15:57:03;;;;;;;1.42;0.15;;;21.20;52.40;;;;;;5114562;28;20051;-71
2022/05/21 15:59:28;;;;;;;1.70;0.30;;;21.10;52.30;;;;;;5113284;28;20046;-73
2022/05/21 16:01:57;;;;;;;1.65;0.20;;;21.10;52.30;;;;;;5113986;28;20043;-72
2022/05/21 16:04:26;;;;;;;1.08;0.20;;;21.10;52.40;;;;;;5113454;28;20090;-72
2022/05/21 16:06:51;;;;;;;1.92;0.40;;;21.10;52.40;;;;;;5113072;28;20044;-73
2022/05/21 16:09:17;;;;;;;1.92;0.20;;;21.10;52.30;;;;;;5114627;28;20054;-72
2022/05/21 16:11:44;;;;;;;3.15;0.30;;;21.10;52.40;;;;;;5114646;28;20140;-71
2022/05/21 16:14:12;;;;;;;2.40;0.47;;;21.10;52.40;;;;;;5113358;28;20040;-71